Time;durP1;ratioP1;P1;durP2;ratioP2;P2;SDS_P1;SDS_P2;PMS_P1;PMS_P2;Temp;Humidity;BMP_temperature;BMP_pressure;BME280_temperature;BME280_humidity;BME280_pressure;Samples;Min_cycle;Max_cycle;Signal;HPM_P1;HPM_P2
2023/11/21 00:02:48;;;;;;;26.60;13.65;;;;;;;;;;6227925;27;20041;-67
2023/11/21 00:05:50;;;;;;;15.00;10.02;;;;;;;;;;6256038;27;20041;-67
2023/11/21 00:08:52;;;;;;;16.73;8.75;;;;;;;;;;6255214;27;20050;-68
2023/11/21 00:11:54;;;;;;;11.13;7.80;;;;;;;;;;6256258;27;20057;-67
2023/11/21 00:14:56;;;;;;;19.25;10.05;;;;;;;;;;6245587;27;20072;-68
2023/11/21 00:18:00;;;;;;;11.20;6.28;;;;;;;;;;6223966;28;20049;-68
2023/11/21 00:21:03;;;;;;;12.77;8.05;;;;;;;;;;6209225;28;20061;-68
2023/11/21 00:24:05;;;;;;;17.83;5.88;;;;;;;;;;6273700;27;20525;-68
2023/11/21 00:27:07;;;;;;;10.00;6.78;;;;;;;;;;6247003;27;20057;-68
2023/11/21 00:30:10;;;;;;;13.65;10.05;;;;;;;;;;6276056;27;20435;-67
2023/11/21 00:33:12;;;;;;;16.80;7.65;;;;;;;;;;6309315;27;20712;-67
2023/11/21 00:36:14;;;;;;;12.20;5.72;;;;;;;;;;6221823;28;20050;-68
2023/11/21 00:39:16;;;;;;;8.45;6.40;;;;;;;;;;6233239;27;20598;-68
2023/11/21 00:42:18;;;;;;;9.48;6.25;;;;;;;;;;6233159;28;20049;-69
2023/11/21 00:45:20;;;;;;;10.57;6.28;;;;;;;;;;6234384;27;20045;-68
2023/11/21 00:48:22;;;;;;;7.50;5.20;;;;;;;;;;6232580;28;20053;-69
2023/11/21 00:51:25;;;;;;;8.70;5.45;;;;;;;;;;6250768;27;20045;-68
2023/11/21 00:54:27;;;;;;;10.65;5.28;;;;;;;;;;6234781;27;20688;-69
2023/11/21 00:57:29;;;;;;;11.50;6.00;;;;;;;;;;6232987;28;20034;-69
2023/11/21 01:00:32;;;;;;;8.93;5.90;;;;;;;;;;6240765;27;20065;-68
2023/11/21 01:03:34;;;;;;;10.32;5.10;;;;;;;;;;6225344;28;20053;-68
2023/11/21 01:06:36;;;;;;;8.75;5.75;;;;;;;;;;6226677;28;20042;-68
2023/11/21 01:09:39;;;;;;;10.07;6.38;;;;;;;;;;6237800;27;20091;-69
2023/11/21 01:12:41;;;;;;;12.02;6.15;;;;;;;;;;6233915;28;20060;-69
2023/11/21 01:15:43;;;;;;;8.13;4.82;;;;;;;;;;6260048;27;20053;-69
2023/11/21 01:18:45;;;;;;;8.52;4.95;;;;;;;;;;6229414;28;20049;-70
2023/11/21 01:21:47;;;;;;;9.40;5.75;;;;;;;;;;6216234;28;20118;-68
2023/11/21 01:24:49;;;;;;;13.18;6.90;;;;;;;;;;6233356;27;20185;-68
2023/11/21 01:27:51;;;;;;;10.70;6.93;;;;;;;;;;6256730;27;20052;-70
2023/11/21 01:30:56;;;;;;;18.60;7.82;;;;;;;;;;6224132;28;20053;-69
2023/11/21 01:33:58;;;;;;;10.32;6.55;;;;;;;;;;6249498;27;20050;-68
2023/11/21 01:37:04;;;;;;;10.13;6.97;;;;;;;;;;6282981;27;20237;-69
2023/11/21 01:40:09;;;;;;;15.70;7.93;;;;;;;;;;6234710;27;20042;-69
2023/11/21 01:43:12;;;;;;;9.02;6.60;;;;;;;;;;6230216;28;20059;-68
2023/11/21 01:46:15;;;;;;;10.05;5.53;;;;;;;;;;6234975;28;20144;-68
2023/11/21 01:49:17;;;;;;;10.60;6.47;;;;;;;;;;6227446;28;20116;-68
2023/11/21 01:52:20;;;;;;;8.07;4.43;;;;;;;;;;6224393;28;20049;-69
2023/11/21 01:55:22;;;;;;;9.77;4.97;;;;;;;;;;6229949;28;20056;-69
2023/11/21 01:58:32;;;;;;;10.98;6.70;;;;;;;;;;6260768;28;20053;-68
2023/11/21 02:01:34;;;;;;;8.70;5.80;;;;;;;;;;6222539;28;20046;-68
2023/11/21 02:04:37;;;;;;;8.70;5.80;;;;;;;;;;6223293;28;20050;-68
2023/11/21 02:07:47;;;;;;;9.90;5.38;;;;;;;;;;6223674;28;20536;-68
2023/11/21 02:10:50;;;;;;;9.55;6.30;;;;;;;;;;6260138;27;20744;-69
2023/11/21 02:13:53;;;;;;;12.75;6.18;;;;;;;;;;6255204;28;20128;-69
2023/11/21 02:16:57;;;;;;;12.07;5.35;;;;;;;;;;6235922;28;20057;-68
2023/11/21 02:19:59;;;;;;;8.02;5.72;;;;;;;;;;6219898;28;20543;-69
2023/11/21 02:23:02;;;;;;;15.43;5.65;;;;;;;;;;6231016;28;20062;-69
2023/11/21 02:26:04;;;;;;;11.20;7.18;;;;;;;;;;6237246;28;20538;-68
2023/11/21 02:29:10;;;;;;;10.65;7.25;;;;;;;;;;6295384;27;20046;-69
2023/11/21 02:32:12;;;;;;;16.92;8.85;;;;;;;;;;6275068;28;20062;-68
2023/11/21 02:35:15;;;;;;;19.38;12.23;;;;;;;;;;6228599;28;20053;-69
2023/11/21 02:38:17;;;;;;;25.85;13.27;;;;;;;;;;6224220;28;20046;-68
2023/11/21 02:41:20;;;;;;;19.08;9.60;;;;;;;;;;6242905;27;20050;-69
2023/11/21 02:44:22;;;;;;;17.67;8.60;;;;;;;;;;6257158;27;20557;-68
2023/11/21 02:47:24;;;;;;;10.27;6.10;;;;;;;;;;6272701;27;20511;-69
2023/11/21 02:50:27;;;;;;;11.80;6.78;;;;;;;;;;6235658;28;20059;-69
2023/11/21 02:53:29;;;;;;;11.15;5.95;;;;;;;;;;6217267;28;20049;-68
2023/11/21 02:56:31;;;;;;;8.98;6.10;;;;;;;;;;6236511;28;20210;-69
2023/11/21 02:59:33;;;;;;;8.32;4.85;;;;;;;;;;6250356;27;20057;-69
2023/11/21 03:02:38;;;;;;;6.07;4.05;;;;;;;;;;6227911;28;20045;-69
2023/11/21 03:05:41;;;;;;;10.10;5.60;;;;;;;;;;6245985;28;20042;-69
2023/11/21 03:08:43;;;;;;;9.75;5.43;;;;;;;;;;6235158;28;20037;-69
2023/11/21 03:11:45;;;;;;;7.68;5.60;;;;;;;;;;6225771;28;20539;-68
2023/11/21 03:14:47;;;;;;;9.77;5.72;;;;;;;;;;6271600;27;20110;-68
2023/11/21 03:17:50;;;;;;;13.43;6.57;;;;;;;;;;6247038;27;20070;-69
2023/11/21 03:20:52;;;;;;;13.15;6.72;;;;;;;;;;6242264;27;20045;-69
2023/11/21 03:23:54;;;;;;;10.68;6.32;;;;;;;;;;6257128;27;20266;-69
2023/11/21 03:26:56;;;;;;;10.27;7.10;;;;;;;;;;6241878;27;20107;-69
2023/11/21 03:29:59;;;;;;;26.13;11.60;;;;;;;;;;6230458;27;20065;-69
2023/11/21 03:33:01;;;;;;;26.60;13.63;;;;;;;;;;6235561;27;20772;-69
2023/11/21 03:36:03;;;;;;;13.25;8.68;;;;;;;;;;6235135;28;20053;-69
2023/11/21 03:39:06;;;;;;;13.60;6.95;;;;;;;;;;6244017;27;20106;-69
2023/11/21 03:42:08;;;;;;;14.80;7.57;;;;;;;;;;6243512;27;20039;-69
2023/11/21 03:45:12;;;;;;;10.07;6.45;;;;;;;;;;6232374;28;20190;-69
2023/11/21 03:48:14;;;;;;;11.88;5.93;;;;;;;;;;6240076;27;20132;-68
2023/11/21 03:51:16;;;;;;;10.27;5.53;;;;;;;;;;6261457;27;20041;-68
2023/11/21 03:54:18;;;;;;;22.63;8.75;;;;;;;;;;6263497;27;20178;-68
2023/11/21 03:57:21;;;;;;;27.60;10.77;;;;;;;;;;6236471;27;20621;-68
2023/11/21 04:00:23;;;;;;;24.13;11.05;;;;;;;;;;6236834;27;20037;-68
2023/11/21 04:03:25;;;;;;;22.95;9.85;;;;;;;;;;6221201;28;20058;-69
2023/11/21 04:06:27;;;;;;;22.23;9.73;;;;;;;;;;6232479;28;20080;-69
2023/11/21 04:09:29;;;;;;;14.73;8.07;;;;;;;;;;6264160;27;20553;-69
2023/11/21 04:12:32;;;;;;;13.32;7.30;;;;;;;;;;6277935;27;20156;-69
2023/11/21 04:15:33;;;;;;;8.43;5.55;;;;;;;;;;6243920;27;20160;-69
2023/11/21 04:18:36;;;;;;;11.10;6.75;;;;;;;;;;6244783;27;20061;-69
2023/11/21 04:21:38;;;;;;;9.13;5.90;;;;;;;;;;6237800;28;20754;-69
2023/11/21 04:24:40;;;;;;;8.85;5.97;;;;;;;;;;6249932;27;20045;-69
2023/11/21 04:27:45;;;;;;;12.00;5.25;;;;;;;;;;6236060;28;20042;-69
2023/11/21 04:30:47;;;;;;;10.40;5.45;;;;;;;;;;6294145;27;20041;-69
2023/11/21 04:33:51;;;;;;;10.57;5.43;;;;;;;;;;6213779;27;20110;-68
2023/11/21 04:36:53;;;;;;;10.20;5.88;;;;;;;;;;6220667;28;20072;-69
2023/11/21 04:39:55;;;;;;;10.23;5.50;;;;;;;;;;6251221;27;20472;-69
2023/11/21 04:42:57;;;;;;;9.13;7.90;;;;;;;;;;6243088;27;20047;-69
2023/11/21 04:45:59;;;;;;;10.23;5.70;;;;;;;;;;6258168;27;20133;-69
2023/11/21 04:49:01;;;;;;;10.25;7.63;;;;;;;;;;6242228;27;20133;-69
2023/11/21 04:52:04;;;;;;;11.98;6.82;;;;;;;;;;6256303;27;20045;-69
2023/11/21 04:55:09;;;;;;;9.23;5.07;;;;;;;;;;6253979;27;20043;-69
2023/11/21 04:58:12;;;;;;;12.20;7.50;;;;;;;;;;6245965;27;20099;-70
2023/11/21 05:01:14;;;;;;;15.70;6.78;;;;;;;;;;6282834;27;20046;-69
2023/11/21 05:04:16;;;;;;;12.43;8.43;;;;;;;;;;6268795;27;20048;-70
2023/11/21 05:07:18;;;;;;;13.50;8.07;;;;;;;;;;6243417;27;20054;-70
2023/11/21 05:10:22;;;;;;;14.55;7.65;;;;;;;;;;6244889;27;20049;-70
2023/11/21 05:13:27;;;;;;;13.90;8.32;;;;;;;;;;6229196;28;20100;-69
2023/11/21 05:16:30;;;;;;;;;;;;;;;;;;6246861;27;20054;-71
2023/11/21 05:19:34;;;;;;;24.00;13.18;;;;;;;;;;6235342;27;19928;-70
2023/11/21 05:22:36;;;;;;;17.52;9.52;;;;;;;;;;6233248;27;20136;-70
2023/11/21 05:25:39;;;;;;;17.02;9.68;;;;;;;;;;6248220;27;20438;-70
2023/11/21 05:28:42;;;;;;;29.50;19.58;;;;;;;;;;6258370;27;20094;-70
2023/11/21 05:31:44;;;;;;;21.67;15.65;;;;;;;;;;6238916;27;20144;-70
2023/11/21 05:34:46;;;;;;;23.98;13.55;;;;;;;;;;6243204;27;20607;-71
2023/11/21 05:37:49;;;;;;;21.52;14.40;;;;;;;;;;6254289;27;20049;-71
2023/11/21 05:40:51;;;;;;;32.78;20.48;;;;;;;;;;6277263;27;20535;-71
2023/11/21 05:43:54;;;;;;;31.00;18.13;;;;;;;;;;6270095;27;20053;-71
2023/11/21 05:46:57;;;;;;;28.23;18.58;;;;;;;;;;6258296;27;20655;-71
2023/11/21 05:49:59;;;;;;;36.95;22.70;;;;;;;;;;6236890;28;20055;-71
2023/11/21 05:53:02;;;;;;;34.70;21.08;;;;;;;;;;6232837;28;20039;-71
2023/11/21 05:56:04;;;;;;;28.15;19.98;;;;;;;;;;6242761;28;20056;-71
2023/11/21 05:59:06;;;;;;;29.52;21.58;;;;;;;;;;6258593;28;20087;-71
2023/11/21 06:02:09;;;;;;;38.45;21.13;;;;;;;;;;6243132;28;20053;-72
2023/11/21 06:05:11;;;;;;;34.83;23.70;;;;;;;;;;6303932;28;20078;-71
2023/11/21 06:08:16;;;;;;;34.45;24.30;;;;;;;;;;6243963;28;20136;-70
2023/11/21 06:11:19;;;;;;;27.15;20.33;;;;;;;;;;6233561;27;20527;-72
2023/11/21 06:14:21;;;;;;;26.52;18.15;;;;;;;;;;6231401;28;20045;-72
2023/11/21 06:17:24;;;;;;;27.52;21.33;;;;;;;;;;6232034;28;20052;-70
2023/11/21 06:20:27;;;;;;;24.58;19.23;;;;;;;;;;6230680;28;20045;-71
2023/11/21 06:23:29;;;;;;;34.30;21.13;;;;;;;;;;6229720;28;20529;-72
2023/11/21 06:26:31;;;;;;;36.35;23.38;;;;;;;;;;6246859;27;20144;-71
2023/11/21 06:29:33;;;;;;;41.90;26.63;;;;;;;;;;6232890;28;20156;-71
2023/11/21 06:32:36;;;;;;;38.33;27.13;;;;;;;;;;6235111;28;20840;-70
2023/11/21 06:35:39;;;;;;;40.40;24.73;;;;;;;;;;6248306;27;20057;-71
2023/11/21 06:38:41;;;;;;;38.80;24.52;;;;;;;;;;6299351;27;20037;-71
2023/11/21 06:41:43;;;;;;;39.55;27.70;;;;;;;;;;6227459;28;20439;-71
2023/11/21 06:44:47;;;;;;;40.72;27.73;;;;;;;;;;6225551;28;20467;-70
2023/11/21 06:47:50;;;;;;;44.20;31.67;;;;;;;;;;6249590;27;20114;-71
2023/11/21 06:50:52;;;;;;;48.80;31.77;;;;;;;;;;6247302;27;20050;-70
2023/11/21 06:53:54;;;;;;;46.85;27.40;;;;;;;;;;6258290;27;20070;-71
2023/11/21 06:56:56;;;;;;;29.15;20.85;;;;;;;;;;6238812;27;20527;-70
2023/11/21 06:59:58;;;;;;;24.98;17.70;;;;;;;;;;6327844;27;20103;-70
2023/11/21 07:03:01;;;;;;;25.67;15.63;;;;;;;;;;6257469;27;20043;-71
2023/11/21 07:06:04;;;;;;;23.05;15.68;;;;;;;;;;6266431;27;20049;-70
2023/11/21 07:09:08;;;;;;;32.03;22.02;;;;;;;;;;6243907;27;20050;-70
2023/11/21 07:12:10;;;;;;;33.08;22.33;;;;;;;;;;6252090;27;20137;-70
2023/11/21 07:15:12;;;;;;;16.27;13.02;;;;;;;;;;6251021;27;20739;-70
2023/11/21 07:18:15;;;;;;;18.13;13.23;;;;;;;;;;6246480;27;20057;-70
2023/11/21 07:21:17;;;;;;;17.83;11.43;;;;;;;;;;6233957;28;20086;-70
2023/11/21 07:24:19;;;;;;;14.60;10.30;;;;;;;;;;6244531;27;20054;-70
2023/11/21 07:27:21;;;;;;;12.88;9.07;;;;;;;;;;6239833;27;20053;-69
2023/11/21 07:30:23;;;;;;;15.90;10.10;;;;;;;;;;6227076;27;20049;-70
2023/11/21 07:33:25;;;;;;;15.48;11.80;;;;;;;;;;6253969;27;20602;-69
2023/11/21 07:36:27;;;;;;;16.58;9.50;;;;;;;;;;6230467;28;20122;-69
2023/11/21 07:39:30;;;;;;;16.42;10.68;;;;;;;;;;6225403;27;20049;-69
2023/11/21 07:42:32;;;;;;;15.85;10.75;;;;;;;;;;6233483;28;20549;-70
2023/11/21 07:45:34;;;;;;;17.55;10.85;;;;;;;;;;6225869;28;20048;-69
2023/11/21 07:48:37;;;;;;;20.85;12.18;;;;;;;;;;6275303;27;20116;-69
2023/11/21 07:51:39;;;;;;;21.90;15.30;;;;;;;;;;6225724;28;20133;-68
2023/11/21 07:54:41;;;;;;;22.75;12.82;;;;;;;;;;6227589;28;20128;-69
2023/11/21 07:57:43;;;;;;;18.23;11.90;;;;;;;;;;6246841;27;20042;-69
2023/11/21 08:00:45;;;;;;;21.25;13.60;;;;;;;;;;6229852;27;20112;-68
2023/11/21 08:03:51;;;;;;;19.80;13.27;;;;;;;;;;6221494;27;20061;-68
2023/11/21 08:06:53;;;;;;;19.52;13.45;;;;;;;;;;6258277;27;20045;-68
2023/11/21 08:09:56;;;;;;;22.85;15.13;;;;;;;;;;6226706;28;20060;-69
2023/11/21 08:12:58;;;;;;;22.88;12.95;;;;;;;;;;6221698;28;20544;-69
2023/11/21 08:16:03;;;;;;;19.45;12.13;;;;;;;;;;6242446;27;20593;-68
2023/11/21 08:19:06;;;;;;;16.42;10.50;;;;;;;;;;6248133;27;20052;-68
2023/11/21 08:22:08;;;;;;;13.95;9.00;;;;;;;;;;6260426;27;20163;-68
2023/11/21 08:25:11;;;;;;;16.80;11.38;;;;;;;;;;6249641;27;20049;-68
2023/11/21 08:28:16;;;;;;;19.55;11.85;;;;;;;;;;6224505;27;20064;-68
2023/11/21 08:31:24;;;;;;;14.75;10.52;;;;;;;;;;6255978;27;20043;-68
2023/11/21 08:34:26;;;;;;;20.20;12.63;;;;;;;;;;6240757;27;20123;-68
2023/11/21 08:37:30;;;;;;;17.35;12.05;;;;;;;;;;6249085;27;20060;-68
2023/11/21 08:40:32;;;;;;;19.65;12.32;;;;;;;;;;6240582;27;20057;-68
2023/11/21 08:43:39;;;;;;;18.40;12.20;;;;;;;;;;6233481;27;20046;-69
2023/11/21 08:46:43;;;;;;;18.50;11.43;;;;;;;;;;6246590;27;20125;-68
2023/11/21 08:49:47;;;;;;;15.73;9.68;;;;;;;;;;6279736;27;20634;-69
2023/11/21 08:52:49;;;;;;;20.83;11.05;;;;;;;;;;6226351;28;20045;-68
2023/11/21 08:55:53;;;;;;;16.42;11.00;;;;;;;;;;6244325;27;20523;-67
2023/11/21 08:58:56;;;;;;;21.83;12.23;;;;;;;;;;6224977;28;20038;-68
2023/11/21 09:01:58;;;;;;;18.10;11.65;;;;;;;;;;6280652;27;20050;-68
2023/11/21 09:05:03;;;;;;;27.55;14.70;;;;;;;;;;6254085;27;20051;-68
2023/11/21 09:08:05;;;;;;;19.50;11.65;;;;;;;;;;6228311;27;20042;-68
2023/11/21 09:11:07;;;;;;;20.67;12.40;;;;;;;;;;6239207;27;20041;-68
2023/11/21 09:14:12;;;;;;;17.95;12.18;;;;;;;;;;6233966;27;20068;-68
2023/11/21 09:17:14;;;;;;;20.02;10.70;;;;;;;;;;6248231;27;20703;-68
2023/11/21 09:20:17;;;;;;;18.98;12.38;;;;;;;;;;6240076;27;20052;-67
2023/11/21 09:23:19;;;;;;;16.48;11.00;;;;;;;;;;6263865;27;20135;-68
2023/11/21 09:26:21;;;;;;;20.52;12.43;;;;;;;;;;6269901;27;20116;-66
2023/11/21 09:29:22;;;;;;;20.77;12.25;;;;;;;;;;6306633;27;20046;-68
2023/11/21 09:32:24;;;;;;;17.88;11.27;;;;;;;;;;6254241;27;20049;-68
2023/11/21 09:35:27;;;;;;;16.67;10.77;;;;;;;;;;6246068;28;20057;-68
2023/11/21 09:38:29;;;;;;;15.30;10.73;;;;;;;;;;6233188;28;20046;-67
2023/11/21 09:41:44;;;;;;;23.88;11.73;;;;;;;;;;6227315;27;20402;-68
2023/11/21 09:44:48;;;;;;;17.20;9.48;;;;;;;;;;6219696;28;20041;-67
2023/11/21 09:47:52;;;;;;;14.48;9.77;;;;;;;;;;6219535;28;20038;-68
2023/11/21 09:50:54;;;;;;;16.08;9.40;;;;;;;;;;6283935;28;20046;-68
2023/11/21 09:53:58;;;;;;;17.48;11.55;;;;;;;;;;6227338;28;20057;-68
2023/11/21 09:57:00;;;;;;;17.80;10.48;;;;;;;;;;6224192;28;20049;-68
2023/11/21 10:00:06;;;;;;;16.67;10.57;;;;;;;;;;6215151;28;20062;-67
2023/11/21 10:03:09;;;;;;;18.25;11.48;;;;;;;;;;6245232;28;20071;-68
2023/11/21 10:06:14;;;;;;;21.50;11.80;;;;;;;;;;6259094;27;20493;-68
2023/11/21 10:09:16;;;;;;;11.35;8.48;;;;;;;;;;6230452;28;20527;-68
2023/11/21 10:12:21;;;;;;;14.35;11.00;;;;;;;;;;6236967;28;20618;-68
2023/11/21 10:15:25;;;;;;;;;;;;;;;;;;6222686;28;20050;-68
2023/11/21 10:18:27;;;;;;;8.77;5.40;;;;;;;;;;6261735;28;19929;-68
2023/11/21 10:21:29;;;;;;;12.73;7.50;;;;;;;;;;6217844;28;20042;-68
2023/11/21 10:24:31;;;;;;;10.80;7.30;;;;;;;;;;6236688;28;20057;-69
2023/11/21 10:27:52;;;;;;;9.75;7.15;;;;;;;;;;6243542;28;20087;-69
2023/11/21 10:30:54;;;;;;;12.13;7.85;;;;;;;;;;6232959;28;20444;-68
2023/11/21 10:34:15;;;;;;;11.43;6.55;;;;;;;;;;6244413;28;20478;-68
2023/11/21 10:37:17;;;;;;;13.13;9.60;;;;;;;;;;6257082;28;20420;-69
2023/11/21 10:40:21;;;;;;;14.57;8.07;;;;;;;;;;6230431;28;20163;-68
2023/11/21 10:43:26;;;;;;;12.50;7.78;;;;;;;;;;6234898;28;20056;-68
2023/11/21 10:46:30;;;;;;;16.33;9.43;;;;;;;;;;6246587;28;20548;-69
2023/11/21 10:49:32;;;;;;;8.85;5.45;;;;;;;;;;6230727;27;20600;-68
2023/11/21 10:52:36;;;;;;;8.38;5.30;;;;;;;;;;6255591;28;20060;-68
2023/11/21 10:55:38;;;;;;;10.50;6.20;;;;;;;;;;6229500;27;20041;-69
2023/11/21 10:58:40;;;;;;;9.23;6.65;;;;;;;;;;6226702;28;20485;-69
2023/11/21 11:01:44;;;;;;;11.05;7.88;;;;;;;;;;6273455;27;20035;-68
2023/11/21 11:04:48;;;;;;;16.90;9.10;;;;;;;;;;6241859;27;20962;-68
2023/11/21 11:07:59;;;;;;;13.65;8.88;;;;;;;;;;6224540;28;20050;-68
2023/11/21 11:11:02;;;;;;;14.68;9.55;;;;;;;;;;6235168;28;20524;-68
2023/11/21 11:14:04;;;;;;;13.90;7.70;;;;;;;;;;6255590;27;20451;-68
2023/11/21 11:17:08;;;;;;;27.48;15.95;;;;;;;;;;6268641;27;20046;-68
2023/11/21 11:20:13;;;;;;;14.68;10.40;;;;;;;;;;6252332;27;20050;-68
2023/11/21 11:23:38;;;;;;;12.88;9.60;;;;;;;;;;6223659;28;20164;-67
2023/11/21 11:27:25;;;;;;;16.23;9.63;;;;;;;;;;6241440;27;20485;-68
2023/11/21 11:30:48;;;;;;;14.00;9.00;;;;;;;;;;6250296;28;20495;-68
2023/11/21 11:34:18;;;;;;;14.55;7.32;;;;;;;;;;6252196;28;20045;-67
2023/11/21 11:37:20;;;;;;;12.65;8.60;;;;;;;;;;6241426;27;20050;-68
2023/11/21 11:40:23;;;;;;;13.10;8.27;;;;;;;;;;6240557;27;20041;-68
2023/11/21 11:43:27;;;;;;;13.65;8.20;;;;;;;;;;6265420;27;20046;-69
2023/11/21 11:46:42;;;;;;;16.63;8.40;;;;;;;;;;6231954;27;20452;-69
2023/11/21 11:50:00;;;;;;;12.70;7.47;;;;;;;;;;6230707;27;20049;-69
2023/11/21 11:53:15;;;;;;;;;;;;;;;;;;6222934;28;20547;-68
2023/11/21 11:56:30;;;;;;;17.48;8.88;;;;;;;;;;6235948;27;20694;-68
2023/11/21 12:00:11;;;;;;;17.85;12.07;;;;;;;;;;6227218;27;20106;-68
2023/11/21 12:03:13;;;;;;;;;;;;;;;;;;6244413;27;20091;-68
2023/11/21 12:06:17;;;;;;;20.15;13.25;;;;;;;;;;6237820;28;20412;-68
2023/11/21 12:09:21;;;;;;;20.58;12.73;;;;;;;;;;6232287;27;20076;-68
2023/11/21 12:12:26;;;;;;;15.80;10.52;;;;;;;;;;6224013;28;20131;-68
2023/11/21 12:15:30;;;;;;;13.60;9.73;;;;;;;;;;6262362;27;20947;-68
2023/11/21 12:18:32;;;;;;;17.45;11.13;;;;;;;;;;6268083;27;20045;-68
2023/11/21 12:21:36;;;;;;;19.40;12.68;;;;;;;;;;6263225;27;20056;-69
2023/11/21 12:24:38;;;;;;;22.00;14.48;;;;;;;;;;6266196;27;20543;-67
2023/11/21 12:27:40;;;;;;;19.80;11.45;;;;;;;;;;6226585;27;20046;-68
2023/11/21 12:30:43;;;;;;;30.77;17.55;;;;;;;;;;6249407;27;20270;-67
2023/11/21 12:33:46;;;;;;;31.50;19.98;;;;;;;;;;6252407;27;20043;-68
2023/11/21 12:36:49;;;;;;;23.02;15.75;;;;;;;;;;6231891;27;20130;-68
2023/11/21 12:39:53;;;;;;;20.50;13.85;;;;;;;;;;6270527;27;20069;-68
2023/11/21 12:42:59;;;;;;;25.73;13.52;;;;;;;;;;6249846;27;20056;-68
2023/11/21 12:46:11;;;;;;;19.42;12.13;;;;;;;;;;6253252;27;20077;-68
2023/11/21 12:49:17;;;;;;;17.45;10.95;;;;;;;;;;6224087;27;20057;-68
2023/11/21 12:52:19;;;;;;;19.00;11.40;;;;;;;;;;6227553;27;20443;-68
2023/11/21 12:55:22;;;;;;;19.70;12.95;;;;;;;;;;6224673;27;20196;-68
2023/11/21 12:58:25;;;;;;;23.42;12.57;;;;;;;;;;6243057;27;20069;-68
2023/11/21 13:01:29;;;;;;;24.52;15.57;;;;;;;;;;6254422;27;20590;-67
2023/11/21 13:04:34;;;;;;;26.48;16.38;;;;;;;;;;6242620;27;20051;-68
2023/11/21 13:07:46;;;;;;;25.08;18.42;;;;;;;;;;6217164;28;20102;-68
2023/11/21 13:10:51;;;;;;;24.33;14.45;;;;;;;;;;6256101;27;20073;-68
2023/11/21 13:13:53;;;;;;;20.88;12.18;;;;;;;;;;6280032;27;20046;-68
2023/11/21 13:16:56;;;;;;;29.13;16.20;;;;;;;;;;6278086;27;20088;-67
2023/11/21 13:19:58;;;;;;;30.25;17.80;;;;;;;;;;6259792;27;20803;-67
2023/11/21 13:23:01;;;;;;;25.63;14.95;;;;;;;;;;6266913;27;20049;-67
2023/11/21 13:26:06;;;;;;;28.10;19.38;;;;;;;;;;6224070;27;20436;-68
2023/11/21 13:29:09;;;;;;;31.23;19.27;;;;;;;;;;6246277;27;20141;-68
2023/11/21 13:32:12;;;;;;;25.25;14.10;;;;;;;;;;6252211;27;20533;-68
2023/11/21 13:35:30;;;;;;;13.75;8.88;;;;;;;;;;6271514;27;20652;-69
2023/11/21 13:38:34;;;;;;;20.25;13.95;;;;;;;;;;6254556;27;20187;-68
2023/11/21 13:41:38;;;;;;;21.67;14.23;;;;;;;;;;6293077;27;20587;-70
2023/11/21 13:44:44;;;;;;;15.85;10.32;;;;;;;;;;6236584;27;20186;-70
2023/11/21 13:47:46;;;;;;;23.80;12.68;;;;;;;;;;6246329;27;20058;-70
2023/11/21 13:50:55;;;;;;;49.85;24.40;;;;;;;;;;6224187;28;20122;-72
2023/11/21 13:53:58;;;;;;;30.23;18.67;;;;;;;;;;6232642;28;20050;-70
2023/11/21 13:57:02;;;;;;;45.72;26.75;;;;;;;;;;6228327;28;20460;-70
2023/11/21 14:00:10;;;;;;;46.42;27.98;;;;;;;;;;6278308;28;20050;-69
2023/11/21 14:03:21;;;;;;;53.53;30.45;;;;;;;;;;6286064;28;20041;-69
2023/11/21 14:06:30;;;;;;;54.83;31.45;;;;;;;;;;6257385;27;20076;-69
2023/11/21 14:09:43;;;;;;;26.92;13.65;;;;;;;;;;6257590;28;20063;-69
2023/11/21 14:12:45;;;;;;;33.78;19.15;;;;;;;;;;6231380;28;20118;-68
2023/11/21 14:15:50;;;;;;;34.88;20.48;;;;;;;;;;6278783;28;20576;-68
2023/11/21 14:18:58;;;;;;;26.15;14.85;;;;;;;;;;6290086;27;20051;-68
2023/11/21 14:22:01;;;;;;;25.38;15.57;;;;;;;;;;6275253;27;20055;-68
2023/11/21 14:25:04;;;;;;;23.65;16.75;;;;;;;;;;6276720;28;20065;-68
2023/11/21 14:28:06;;;;;;;32.75;21.08;;;;;;;;;;6283173;28;20058;-68
2023/11/21 14:31:13;;;;;;;32.50;18.67;;;;;;;;;;6251007;27;20039;-68
2023/11/21 14:34:15;;;;;;;30.60;18.40;;;;;;;;;;6221120;28;20855;-68
2023/11/21 14:37:22;;;;;;;28.23;18.25;;;;;;;;;;6216461;28;20045;-68
2023/11/21 14:40:24;;;;;;;121.00;51.30;;;;;;;;;;6232963;28;20538;-68
2023/11/21 14:43:29;;;;;;;108.03;46.92;;;;;;;;;;6247819;27;20064;-68
2023/11/21 14:46:31;;;;;;;28.73;17.40;;;;;;;;;;6249711;27;20130;-69
2023/11/21 14:49:49;;;;;;;31.52;17.58;;;;;;;;;;6229199;28;20222;-69
2023/11/21 14:52:59;;;;;;;34.05;18.67;;;;;;;;;;6248339;27;20568;-68
2023/11/21 14:56:04;;;;;;;29.40;17.13;;;;;;;;;;6239109;27;20058;-69
2023/11/21 14:59:12;;;;;;;31.00;17.27;;;;;;;;;;6231659;27;20435;-67
2023/11/21 15:02:15;;;;;;;27.83;15.38;;;;;;;;;;6241117;27;20049;-69
2023/11/21 15:05:18;;;;;;;24.98;16.48;;;;;;;;;;6238062;27;20053;-69
2023/11/21 15:08:26;;;;;;;22.40;14.88;;;;;;;;;;6249566;27;20465;-63
2023/11/21 15:11:30;;;;;;;32.55;20.20;;;;;;;;;;6266386;27;20151;-69
2023/11/21 15:14:35;;;;;;;26.70;20.33;;;;;;;;;;6263875;27;20425;-67
2023/11/21 15:17:39;;;;;;;30.58;20.08;;;;;;;;;;6272484;27;20052;-72
2023/11/21 15:20:43;;;;;;;30.23;18.05;;;;;;;;;;6241158;27;20124;-72
2023/11/21 15:23:45;;;;;;;138.07;58.70;;;;;;;;;;6318799;27;20043;-69
2023/11/21 15:26:47;;;;;;;69.03;36.13;;;;;;;;;;6255728;27;20609;-74
2023/11/21 15:29:50;;;;;;;49.28;30.17;;;;;;;;;;6250153;27;20460;-72
2023/11/21 15:32:53;;;;;;;76.20;35.97;;;;;;;;;;6234279;27;20032;-71
2023/11/21 15:36:00;;;;;;;88.32;39.83;;;;;;;;;;6223649;27;20047;-72
2023/11/21 15:39:30;;;;;;;60.22;35.13;;;;;;;;;;6230776;27;20144;-70
2023/11/21 15:42:36;;;;;;;77.72;41.22;;;;;;;;;;6244656;27;20022;-72
2023/11/21 15:45:39;;;;;;;65.72;36.60;;;;;;;;;;6243227;27;20135;-71
2023/11/21 15:48:49;;;;;;;59.92;39.72;;;;;;;;;;6239470;27;20041;-71
2023/11/21 15:51:58;;;;;;;56.33;32.83;;;;;;;;;;6256083;27;20709;-72
2023/11/21 15:55:00;;;;;;;43.47;30.23;;;;;;;;;;6311594;27;20043;-72
2023/11/21 15:58:04;;;;;;;50.65;32.40;;;;;;;;;;6231078;27;20034;-72
2023/11/21 16:01:08;;;;;;;53.22;31.20;;;;;;;;;;6228487;28;20334;-73
2023/11/21 16:04:12;;;;;;;58.15;34.45;;;;;;;;;;6261237;27;20053;-72
2023/11/21 16:07:14;;;;;;;54.47;35.88;;;;;;;;;;6286736;27;20049;-73
2023/11/21 16:10:16;;;;;;;46.92;26.33;;;;;;;;;;6233520;28;20049;-73
2023/11/21 16:13:18;;;;;;;44.38;23.23;;;;;;;;;;6314420;27;20085;-73
2023/11/21 16:16:22;;;;;;;39.47;25.55;;;;;;;;;;6249511;27;20045;-73
2023/11/21 16:19:24;;;;;;;36.78;21.90;;;;;;;;;;6233774;28;20113;-73
2023/11/21 16:22:28;;;;;;;37.38;22.17;;;;;;;;;;6276221;27;20074;-73
2023/11/21 16:25:30;;;;;;;36.50;22.75;;;;;;;;;;6228744;28;20493;-65
2023/11/21 16:28:32;;;;;;;32.63;20.90;;;;;;;;;;6263500;27;20075;-65
2023/11/21 16:31:34;;;;;;;32.67;19.10;;;;;;;;;;6232393;27;20049;-65
2023/11/21 16:34:38;;;;;;;35.05;19.80;;;;;;;;;;6266228;27;20049;-65
2023/11/21 16:37:42;;;;;;;29.83;17.58;;;;;;;;;;6238711;27;20134;-67
2023/11/21 16:41:02;;;;;;;25.55;14.25;;;;;;;;;;6239540;27;20646;-68
2023/11/21 16:44:05;;;;;;;25.00;15.05;;;;;;;;;;6245707;22;20149;-67
2023/11/21 16:47:07;;;;;;;21.23;11.10;;;;;;;;;;6226936;28;20053;-69
2023/11/21 16:50:09;;;;;;;20.17;9.68;;;;;;;;;;6223981;28;20440;-69
2023/11/21 16:53:11;;;;;;;13.80;8.02;;;;;;;;;;6222666;28;20559;-69
2023/11/21 16:56:13;;;;;;;10.13;6.10;;;;;;;;;;6229683;27;20109;-69
2023/11/21 16:59:15;;;;;;;11.02;5.97;;;;;;;;;;6230201;28;20227;-69
2023/11/21 17:02:18;;;;;;;8.93;5.20;;;;;;;;;;6223715;28;20560;-70
2023/11/21 17:05:21;;;;;;;16.05;8.15;;;;;;;;;;6284425;28;20077;-70
2023/11/21 17:08:23;;;;;;;13.70;7.95;;;;;;;;;;6223832;28;20049;-71
2023/11/21 17:11:26;;;;;;;12.48;6.70;;;;;;;;;;6230759;28;20033;-70
2023/11/21 17:14:28;;;;;;;15.52;7.47;;;;;;;;;;6228054;28;20140;-71
2023/11/21 17:17:30;;;;;;;12.23;7.10;;;;;;;;;;6222999;28;20049;-65
2023/11/21 17:20:32;;;;;;;9.77;6.50;;;;;;;;;;6232000;28;20050;-65
2023/11/21 17:23:34;;;;;;;10.02;5.60;;;;;;;;;;6225567;28;20103;-70
2023/11/21 17:26:36;;;;;;;10.32;5.35;;;;;;;;;;6230335;28;20556;-67
2023/11/21 17:29:39;;;;;;;11.43;6.90;;;;;;;;;;6225903;28;20190;-69
2023/11/21 17:32:41;;;;;;;8.18;4.00;;;;;;;;;;6229190;28;20049;-68
2023/11/21 17:35:44;;;;;;;8.65;5.90;;;;;;;;;;6227644;28;20053;-68
2023/11/21 17:38:46;;;;;;;10.10;5.65;;;;;;;;;;6226210;28;20555;-68
2023/11/21 17:41:49;;;;;;;6.97;4.88;;;;;;;;;;6226250;28;20056;-68
2023/11/21 17:44:51;;;;;;;7.45;3.95;;;;;;;;;;6224823;28;20049;-69
2023/11/21 17:47:53;;;;;;;6.25;3.63;;;;;;;;;;6228822;28;20046;-68
2023/11/21 17:50:55;;;;;;;8.02;4.45;;;;;;;;;;6224967;28;20110;-68
2023/11/21 17:54:01;;;;;;;10.38;6.30;;;;;;;;;;6228314;28;20084;-68
2023/11/21 17:57:03;;;;;;;9.18;4.25;;;;;;;;;;6226720;28;20060;-69
2023/11/21 18:00:06;;;;;;;6.28;3.92;;;;;;;;;;6227574;28;20471;-69
2023/11/21 18:03:09;;;;;;;5.95;3.10;;;;;;;;;;6228614;28;20037;-69